Time;durP1;ratioP1;P1;durP2;ratioP2;P2;SDS_P1;SDS_P2;PMS_P1;PMS_P2;Temp;Humidity;BMP_temperature;BMP_pressure;BME280_temperature;BME280_humidity;BME280_pressure;Samples;Min_cycle;Max_cycle;Signal;HPM_P1;HPM_P2
2023/01/11 00:00:09;;;;;;;0.25;0.25;;;8.80;99.90;;;;;;5044424;28;20033;-78
2023/01/11 00:02:35;;;;;;;0.82;0.82;;;8.80;99.90;;;;;;5044747;28;20112;-79
2023/01/11 00:05:02;;;;;;;0.63;0.63;;;8.80;99.90;;;;;;5044741;28;20041;-78
2023/01/11 00:07:27;;;;;;;0.10;0.10;;;8.80;99.90;;;;;;5042976;28;20024;-78
2023/01/11 00:09:53;;;;;;;0.20;0.20;;;8.80;99.90;;;;;;5044918;28;20417;-74
2023/01/11 00:12:19;;;;;;;0.10;0.10;;;8.80;99.90;;;;;;5044270;28;20577;-78
2023/01/11 00:14:44;;;;;;;0.95;0.95;;;8.70;99.90;;;;;;5043892;28;20103;-77
2023/01/11 00:17:10;;;;;;;0.32;0.32;;;8.70;99.90;;;;;;5044299;28;20106;-76
2023/01/11 00:19:36;;;;;;;0.15;0.15;;;8.70;99.90;;;;;;5043951;28;20107;-76
2023/01/11 00:22:02;;;;;;;0.10;0.10;;;8.60;99.90;;;;;;5043473;28;20064;-78
2023/01/11 00:24:27;;;;;;;0.98;0.75;;;8.50;99.90;;;;;;5043652;28;20078;-77
2023/01/11 00:26:53;;;;;;;0.40;0.40;;;8.50;99.90;;;;;;5043536;28;20560;-76
2023/01/11 00:29:19;;;;;;;0.57;0.57;;;8.50;99.90;;;;;;5056791;28;20041;-76
2023/01/11 00:31:44;;;;;;;10.98;2.72;;;8.50;99.90;;;;;;5044003;28;20056;-78
2023/01/11 00:34:10;;;;;;;0.10;0.10;;;8.60;99.90;;;;;;5044252;28;20392;-76
2023/01/11 00:36:36;;;;;;;1.20;1.10;;;8.60;99.90;;;;;;5044258;28;20036;-78
2023/01/11 00:39:02;;;;;;;0.20;0.20;;;8.60;99.90;;;;;;5043838;28;20037;-79
2023/01/11 00:49:45;;;;;;;0.40;0.40;;;8.70;99.90;;;;;;5038801;28;20886;-76
2023/01/11 00:52:11;;;;;;;0.52;0.52;;;8.80;99.90;;;;;;5042185;28;20021;-80
2023/01/11 00:54:38;;;;;;;0.20;0.20;;;8.80;99.90;;;;;;5044629;28;20094;-80
2023/01/11 00:57:06;;;;;;;;;;;8.80;99.90;;;;;;5044113;28;20033;-80
2023/01/11 00:59:35;;;;;;;0.28;0.28;;;8.80;99.90;;;;;;5043502;28;20018;-78
2023/01/11 01:02:01;;;;;;;0.63;0.63;;;8.70;99.90;;;;;;5043264;28;20594;-78
2023/01/11 01:04:27;;;;;;;2.60;1.27;;;8.70;99.90;;;;;;5043278;28;20024;-77
2023/01/11 01:06:53;;;;;;;0.57;0.57;;;8.60;99.90;;;;;;5042912;28;20036;-78
2023/01/11 01:09:19;;;;;;;0.28;0.28;;;8.60;99.90;;;;;;5043199;28;20153;-77
2023/01/11 01:11:45;;;;;;;0.40;0.40;;;8.60;99.90;;;;;;5042684;28;20024;-78
2023/01/11 01:17:09;;;;;;;0.90;0.90;;;8.70;99.90;;;;;;5032811;28;20889;-76
2023/01/11 01:19:37;;;;;;;0.95;0.90;;;8.80;99.90;;;;;;5042866;28;20116;-78
2023/01/11 01:22:03;;;;;;;0.25;0.25;;;8.60;99.90;;;;;;5035700;28;20498;-75
2023/01/11 01:24:29;;;;;;;0.15;0.15;;;8.60;99.90;;;;;;5042475;28;20035;-78
2023/01/11 01:26:56;;;;;;;0.28;0.28;;;8.60;99.90;;;;;;5042362;28;20033;-78
2023/01/11 01:29:22;;;;;;;0.55;0.55;;;8.40;99.90;;;;;;5043206;28;20196;-78
2023/01/11 01:31:48;;;;;;;0.10;0.10;;;8.40;99.90;;;;;;5042870;28;20157;-78
2023/01/11 01:34:14;;;;;;;0.50;0.50;;;8.50;99.90;;;;;;5042840;28;20666;-79
2023/01/11 01:36:39;;;;;;;0.15;0.15;;;8.50;99.90;;;;;;5041270;28;20064;-78
2023/01/11 01:39:06;;;;;;;0.70;0.65;;;8.60;99.90;;;;;;5042269;28;20079;-79
2023/01/11 01:41:33;;;;;;;0.17;0.17;;;8.60;99.90;;;;;;5041866;28;20039;-78
2023/01/11 01:44:01;;;;;;;0.20;0.20;;;8.60;99.90;;;;;;5034723;28;20033;-77
2023/01/11 01:46:29;;;;;;;4.85;2.55;;;8.60;99.90;;;;;;5040447;28;20052;-78
2023/01/11 01:49:10;;;;;;;1.88;0.73;;;8.70;99.90;;;;;;5041760;28;20099;-76
2023/01/11 01:51:40;;;;;;;0.10;0.10;;;8.80;99.90;;;;;;5042088;28;20070;-77
2023/01/11 01:54:10;;;;;;;0.77;0.77;;;8.80;99.90;;;;;;5042513;28;20123;-78
2023/01/11 01:56:43;;;;;;;0.20;0.20;;;8.80;99.90;;;;;;5042123;28;20036;-78
2023/01/11 01:59:12;;;;;;;1.73;0.73;;;8.90;99.90;;;;;;5046736;28;20031;-76
2023/01/11 02:01:48;;;;;;;0.45;0.45;;;8.80;99.90;;;;;;5044693;28;20025;-78
2023/01/11 02:04:47;;;;;;;1.08;0.45;;;8.90;99.90;;;;;;5040952;28;20029;-78
2023/01/11 02:07:25;;;;;;;0.95;0.40;;;8.80;99.90;;;;;;5042129;28;20061;-79
2023/01/11 02:10:19;;;;;;;0.55;0.55;;;8.80;99.90;;;;;;5038577;28;20060;-78
2023/01/11 02:13:04;;;;;;;0.30;0.30;;;8.80;99.90;;;;;;5040671;28;20036;-78
2023/01/11 02:15:30;;;;;;;0.22;0.22;;;8.80;99.90;;;;;;5041060;28;20060;-76
2023/01/11 02:17:56;;;;;;;0.50;0.50;;;8.70;99.90;;;;;;5040203;28;20500;-76
2023/01/11 02:20:28;;;;;;;0.68;0.68;;;8.60;99.90;;;;;;5042070;28;20040;-78
2023/01/11 02:23:01;;;;;;;0.30;0.30;;;8.60;99.90;;;;;;5040664;28;20031;-77
2023/01/11 02:25:45;;;;;;;0.10;0.10;;;8.60;99.90;;;;;;5041302;28;20029;-77
2023/01/11 02:28:36;;;;;;;0.10;0.10;;;8.60;99.90;;;;;;5052872;28;20639;-77
2023/01/11 02:31:32;;;;;;;0.32;0.30;;;8.80;99.90;;;;;;5042142;28;20021;-75
2023/01/11 02:34:07;;;;;;;0.10;0.10;;;8.80;99.90;;;;;;5038710;28;20316;-76
2023/01/11 02:36:51;;;;;;;0.10;0.10;;;8.90;99.90;;;;;;5040057;28;20564;-79
2023/01/11 02:39:31;;;;;;;0.47;0.47;;;8.90;99.90;;;;;;5041738;28;20037;-78
2023/01/11 02:45:07;;;;;;;0.40;0.40;;;8.90;99.90;;;;;;5040987;28;20044;-76
2023/01/11 02:47:57;;;;;;;0.30;0.30;;;8.90;99.90;;;;;;5041904;28;20029;-79
2023/01/11 02:50:41;;;;;;;0.52;0.52;;;8.90;99.90;;;;;;5038569;28;20020;-77
2023/01/11 02:53:24;;;;;;;11.88;0.80;;;8.90;99.90;;;;;;5044468;28;20040;-79
2023/01/11 02:55:55;;;;;;;0.55;0.52;;;8.90;99.90;;;;;;5043395;28;20025;-76
2023/01/11 02:58:23;;;;;;;0.30;0.30;;;8.80;99.90;;;;;;5040975;28;20029;-77
2023/01/11 03:00:50;;;;;;;5.47;0.40;;;8.90;99.90;;;;;;5045766;28;20148;-78
2023/01/11 03:03:23;;;;;;;0.20;0.20;;;8.80;99.90;;;;;;5040634;28;20644;-76
2023/01/11 03:05:59;;;;;;;0.25;0.20;;;8.90;99.90;;;;;;5049442;28;20043;-76
2023/01/11 03:08:30;;;;;;;0.32;0.32;;;8.90;99.90;;;;;;5051203;28;20044;-79
2023/01/11 03:10:56;;;;;;;0.15;0.15;;;8.80;99.90;;;;;;5045004;28;20029;-77
2023/01/11 03:13:49;;;;;;;0.20;0.20;;;8.90;99.90;;;;;;5045452;28;20040;-75
2023/01/11 03:16:26;;;;;;;0.25;0.25;;;8.80;99.90;;;;;;5047483;28;20043;-78
2023/01/11 03:18:54;;;;;;;;;;;8.90;99.90;;;;;;5042140;28;20120;-77
2023/01/11 03:21:48;;;;;;;2.10;0.15;;;8.80;99.90;;;;;;5041409;28;20006;-78
2023/01/11 03:24:32;;;;;;;0.10;0.10;;;8.90;99.90;;;;;;5047212;28;20117;-77
2023/01/11 03:27:39;;;;;;;1.00;0.55;;;8.90;99.90;;;;;;5047720;28;20040;-77
2023/01/11 03:30:31;;;;;;;0.50;0.50;;;8.80;99.90;;;;;;5049330;28;20188;-76
2023/01/11 03:33:09;;;;;;;1.85;0.65;;;8.60;99.90;;;;;;5042929;28;20025;-76
2023/01/11 03:35:57;;;;;;;0.10;0.10;;;8.70;99.90;;;;;;5051175;28;20027;-76
2023/01/11 03:38:30;;;;;;;2.45;0.60;;;8.70;99.90;;;;;;5043946;28;20052;-77
2023/01/11 03:41:10;;;;;;;0.15;0.15;;;8.70;99.90;;;;;;5044865;28;20029;-75
2023/01/11 03:43:39;;;;;;;6.55;1.15;;;8.60;99.90;;;;;;5042822;28;20029;-77
2023/01/11 03:46:26;;;;;;;0.10;0.10;;;8.40;99.90;;;;;;5044203;28;20116;-75
2023/01/11 03:48:59;;;;;;;0.32;0.32;;;8.40;99.90;;;;;;5044978;28;20021;-76
2023/01/11 03:51:28;;;;;;;0.30;0.30;;;8.50;99.90;;;;;;5040497;28;20029;-76
2023/01/11 03:53:59;;;;;;;0.57;0.57;;;8.50;99.90;;;;;;5045061;28;20028;-78
2023/01/11 03:56:34;;;;;;;0.40;0.40;;;8.60;99.90;;;;;;5041750;28;20079;-75
2023/01/11 03:59:00;;;;;;;0.10;0.10;;;8.50;99.90;;;;;;5044321;28;20053;-76
2023/01/11 04:01:27;;;;;;;3.83;0.52;;;8.60;99.90;;;;;;5044901;28;20102;-76
2023/01/11 04:03:52;;;;;;;0.10;0.10;;;8.70;99.90;;;;;;5044953;28;20025;-75
2023/01/11 04:06:18;;;;;;;0.35;0.35;;;8.70;99.90;;;;;;5044195;28;20848;-77
2023/01/11 04:08:44;;;;;;;1.40;1.08;;;8.70;99.90;;;;;;5044059;28;20041;-77
2023/01/11 04:11:09;;;;;;;0.10;0.10;;;8.70;99.90;;;;;;5043800;28;20896;-77
2023/01/11 04:13:35;;;;;;;0.10;0.10;;;8.70;99.90;;;;;;5044117;28;20590;-77
2023/01/11 04:16:01;;;;;;;0.10;0.10;;;8.80;99.90;;;;;;5044586;28;20036;-77
2023/01/11 04:18:27;;;;;;;0.10;0.10;;;8.80;99.90;;;;;;5044426;28;20534;-76
2023/01/11 04:20:52;;;;;;;0.30;0.30;;;8.80;99.90;;;;;;5044313;28;20021;-75
2023/01/11 04:23:18;;;;;;;6.35;1.98;;;8.90;99.90;;;;;;5044195;28;20025;-77
2023/01/11 04:25:45;;;;;;;4.00;0.70;;;8.90;99.90;;;;;;5044139;28;20059;-76
2023/01/11 04:28:11;;;;;;;0.15;0.15;;;8.90;99.90;;;;;;5042212;28;20044;-77
2023/01/11 04:30:37;;;;;;;0.10;0.10;;;8.90;99.90;;;;;;5044754;28;20400;-78
2023/01/11 04:33:03;;;;;;;0.90;0.52;;;8.90;99.90;;;;;;5044924;28;20032;-77
2023/01/11 04:35:28;;;;;;;0.10;0.10;;;8.90;99.90;;;;;;5037622;28;20039;-76
2023/01/11 04:37:56;;;;;;;0.10;0.10;;;8.90;99.90;;;;;;5045756;28;20029;-76
2023/01/11 04:40:22;;;;;;;0.57;0.57;;;8.90;99.90;;;;;;5044445;28;20029;-78
2023/01/11 04:42:48;;;;;;;0.10;0.10;;;8.90;99.90;;;;;;5037879;28;20029;-79
2023/01/11 04:45:14;;;;;;;0.25;0.25;;;8.90;99.90;;;;;;5043589;28;20033;-77
2023/01/11 04:47:39;;;;;;;0.50;0.50;;;8.90;99.90;;;;;;5042405;28;20060;-78
2023/01/11 04:50:07;;;;;;;0.10;0.10;;;8.90;99.90;;;;;;5039807;28;20034;-78
2023/01/11 04:52:32;;;;;;;0.75;0.75;;;8.90;99.90;;;;;;5043578;28;20403;-78
2023/01/11 04:54:58;;;;;;;0.68;0.68;;;8.80;99.90;;;;;;5044013;28;20025;-78
2023/01/11 04:57:24;;;;;;;0.10;0.10;;;8.90;99.90;;;;;;5044272;28;20044;-77
2023/01/11 04:59:50;;;;;;;0.30;0.30;;;8.70;99.90;;;;;;5044158;28;20029;-75
2023/01/11 05:02:16;;;;;;;0.70;0.70;;;8.80;99.90;;;;;;5043727;28;20185;-76
2023/01/11 05:04:42;;;;;;;1.50;1.20;;;8.80;99.90;;;;;;5053070;28;20032;-74
2023/01/11 05:07:09;;;;;;;0.75;0.30;;;8.80;99.90;;;;;;5042046;28;21150;-77
2023/01/11 05:09:35;;;;;;;0.10;0.10;;;8.80;99.90;;;;;;5043152;28;20532;-76
2023/01/11 05:12:00;;;;;;;0.10;0.10;;;8.80;99.90;;;;;;5052491;28;20033;-76
2023/01/11 05:14:26;;;;;;;0.10;0.10;;;8.80;99.90;;;;;;5042614;28;20029;-76
2023/01/11 05:16:52;;;;;;;0.10;0.10;;;8.90;99.90;;;;;;5041336;28;20036;-75
2023/01/11 05:19:18;;;;;;;0.10;0.10;;;8.90;99.90;;;;;;5043124;28;20029;-76
2023/01/11 05:21:43;;;;;;;0.20;0.20;;;8.90;99.90;;;;;;5042363;28;20025;-76
2023/01/11 05:24:15;;;;;;;0.10;0.10;;;8.90;99.90;;;;;;5054181;28;20139;-77
2023/01/11 05:26:43;;;;;;;0.10;0.10;;;8.90;99.90;;;;;;5042904;28;20028;-78
2023/01/11 05:29:12;;;;;;;0.22;0.22;;;8.80;99.90;;;;;;5043404;28;20049;-75
2023/01/11 05:31:39;;;;;;;0.73;0.73;;;8.90;99.90;;;;;;5043094;28;20028;-77
2023/01/11 05:34:05;;;;;;;0.20;0.20;;;8.90;99.90;;;;;;5042993;28;20042;-77
2023/01/11 05:36:32;;;;;;;0.10;0.10;;;8.90;99.90;;;;;;5042726;28;20049;-76
2023/01/11 05:38:58;;;;;;;0.13;0.13;;;8.90;99.90;;;;;;5042618;28;20033;-76
2023/01/11 05:41:26;;;;;;;6.28;1.02;;;9.00;99.90;;;;;;5042930;28;20035;-77
2023/01/11 05:46:39;;;;;;;0.10;0.10;;;9.00;99.90;;;;;;5042441;28;20542;-79
2023/01/11 05:49:05;;;;;;;0.10;0.10;;;8.90;99.90;;;;;;5030889;28;20032;-77
2023/01/11 05:51:31;;;;;;;0.77;0.73;;;8.90;99.90;;;;;;5043443;28;20124;-78
2023/01/11 05:53:58;;;;;;;0.20;0.20;;;8.90;99.90;;;;;;5042541;28;20028;-79
2023/01/11 05:56:24;;;;;;;;;;;8.90;99.90;;;;;;5042863;28;20052;-79
2023/01/11 05:58:51;;;;;;;0.60;0.60;;;8.90;99.90;;;;;;5047266;28;19917;-80
2023/01/11 06:01:19;;;;;;;0.35;0.35;;;8.90;99.90;;;;;;5041412;28;20055;-79
2023/01/11 06:03:45;;;;;;;0.73;0.73;;;9.00;99.90;;;;;;5042501;28;20025;-78
2023/01/11 06:06:12;;;;;;;0.30;0.30;;;9.00;99.90;;;;;;5039751;28;20033;-77
2023/01/11 06:08:37;;;;;;;0.10;0.10;;;9.00;99.90;;;;;;5031280;28;20098;-79
2023/01/11 06:11:03;;;;;;;2.70;1.75;;;8.80;99.90;;;;;;5031702;28;20041;-80
2023/01/11 06:13:29;;;;;;;1.25;1.13;;;8.80;99.90;;;;;;5039023;28;20714;-79
2023/01/11 06:16:02;;;;;;;0.43;0.43;;;8.80;99.90;;;;;;5041576;28;20411;-79
2023/01/11 06:18:30;;;;;;;1.02;0.63;;;8.80;99.90;;;;;;5032502;28;20025;-80
2023/01/11 06:20:56;;;;;;;2.72;1.80;;;8.80;99.90;;;;;;5027060;28;20037;-81
2023/01/11 06:23:22;;;;;;;7.15;1.15;;;8.80;99.90;;;;;;5030924;28;20825;-80
2023/01/11 06:25:48;;;;;;;0.38;0.28;;;8.90;99.90;;;;;;5030078;28;20112;-79
2023/01/11 06:28:14;;;;;;;0.10;0.10;;;8.80;99.90;;;;;;5030453;28;20032;-78
2023/01/11 06:30:40;;;;;;;0.10;0.10;;;8.80;99.90;;;;;;5032474;28;20025;-79
2023/01/11 06:33:06;;;;;;;1.75;1.23;;;8.80;99.90;;;;;;5042410;28;20028;-78
2023/01/11 06:35:36;;;;;;;0.20;0.20;;;8.90;99.90;;;;;;5050896;28;20021;-78
2023/01/11 06:38:01;;;;;;;0.20;0.20;;;8.80;99.90;;;;;;5049672;28;20038;-79
2023/01/11 06:40:28;;;;;;;0.50;0.50;;;8.80;99.90;;;;;;5051874;28;20021;-78
2023/01/11 06:42:54;;;;;;;0.25;0.25;;;8.90;99.90;;;;;;5051204;28;20059;-77
2023/01/11 06:45:19;;;;;;;0.20;0.20;;;8.80;99.90;;;;;;5042221;28;20029;-80
2023/01/11 06:47:45;;;;;;;0.10;0.10;;;8.80;99.90;;;;;;5035418;28;20657;-80
2023/01/11 06:50:11;;;;;;;1.15;1.08;;;8.90;99.90;;;;;;5037850;28;20092;-80
2023/01/11 06:52:37;;;;;;;0.30;0.30;;;8.90;99.90;;;;;;5040873;28;20036;-80
2023/01/11 06:55:02;;;;;;;0.32;0.32;;;8.90;99.90;;;;;;5041772;28;20025;-79
2023/01/11 06:57:28;;;;;;;4.57;1.33;;;9.00;99.90;;;;;;5041487;28;20028;-82
2023/01/11 06:59:54;;;;;;;0.65;0.65;;;8.90;99.90;;;;;;5048234;28;20021;-81
2023/01/11 07:02:20;;;;;;;0.30;0.30;;;9.00;99.90;;;;;;5041463;28;20423;-83
2023/01/11 07:04:46;;;;;;;1.02;1.00;;;9.00;99.90;;;;;;5042543;28;20706;-77
2023/01/11 07:07:11;;;;;;;1.15;1.10;;;9.00;99.90;;;;;;5035638;28;20086;-82
2023/01/11 07:09:37;;;;;;;12.90;5.93;;;8.90;99.90;;;;;;5053058;28;20190;-83
2023/01/11 07:12:03;;;;;;;12.43;4.75;;;8.90;99.90;;;;;;5041319;28;20025;-81
2023/01/11 07:14:29;;;;;;;3.80;2.72;;;8.80;99.90;;;;;;5042013;28;20025;-80
2023/01/11 07:16:55;;;;;;;2.10;1.55;;;8.80;99.90;;;;;;5042217;28;20060;-79
2023/01/11 07:19:20;;;;;;;1.50;1.40;;;8.80;99.90;;;;;;5040929;28;20116;-81
2023/01/11 07:21:46;;;;;;;1.58;0.95;;;8.90;99.90;;;;;;5041948;28;20029;-79
2023/01/11 07:24:12;;;;;;;2.90;2.70;;;8.80;99.90;;;;;;5039590;28;20087;-80
2023/01/11 07:26:40;;;;;;;1.05;1.05;;;8.90;99.90;;;;;;5038816;28;20059;-79
2023/01/11 07:29:09;;;;;;;1.40;1.30;;;8.80;99.90;;;;;;5037596;28;20690;-80
2023/01/11 07:31:35;;;;;;;0.65;0.40;;;8.70;99.90;;;;;;5046325;28;20033;-79
2023/01/11 07:34:02;;;;;;;5.88;2.00;;;8.60;99.90;;;;;;5043463;28;20029;-80
2023/01/11 07:36:28;;;;;;;0.73;0.73;;;8.60;99.90;;;;;;5042990;28;20049;-79
2023/01/11 07:38:54;;;;;;;0.30;0.30;;;8.50;99.90;;;;;;5038657;28;20075;-80
2023/01/11 07:44:05;;;;;;;2.85;1.63;;;8.50;99.90;;;;;;5037154;28;20127;-80
2023/01/11 07:46:31;;;;;;;0.30;0.30;;;8.50;99.90;;;;;;5045692;28;20762;-80
2023/01/11 07:48:56;;;;;;;0.70;0.70;;;8.40;99.90;;;;;;5043854;28;20032;-80
2023/01/11 07:51:23;;;;;;;1.75;1.65;;;8.40;99.90;;;;;;5042520;28;20448;-80
2023/01/11 07:53:49;;;;;;;0.17;0.17;;;8.40;99.90;;;;;;5044977;28;20585;-79
2023/01/11 07:56:15;;;;;;;1.45;0.90;;;8.40;99.90;;;;;;5044546;28;20041;-80
2023/01/11 07:58:41;;;;;;;0.43;0.30;;;8.40;99.90;;;;;;5047481;28;20142;-80
2023/01/11 08:01:07;;;;;;;0.55;0.43;;;8.40;99.90;;;;;;5044294;28;20028;-80
2023/01/11 08:03:33;;;;;;;0.10;0.10;;;8.40;99.90;;;;;;5044571;28;20048;-80
2023/01/11 08:05:58;;;;;;;0.40;0.40;;;8.40;99.90;;;;;;5041765;28;20021;-81
2023/01/11 08:08:24;;;;;;;0.20;0.20;;;8.40;99.90;;;;;;5042799;28;20060;-80
2023/01/11 08:14:37;;;;;;;0.20;0.20;;;8.50;99.90;;;;;;5044592;28;20033;-79
2023/01/11 08:16:19;;;;;;;0.47;0.47;;;8.40;99.90;;;;;;5044144;28;20044;-80
2023/01/11 08:18:45;;;;;;;0.65;0.65;;;8.50;99.90;;;;;;5044016;28;20033;-81
2023/01/11 08:21:11;;;;;;;1.38;1.27;;;8.50;99.90;;;;;;5044424;28;20052;-80
2023/01/11 08:23:36;;;;;;;1.25;0.88;;;8.50;99.90;;;;;;5044174;28;20441;-79
2023/01/11 08:26:02;;;;;;;2.83;1.10;;;8.50;99.90;;;;;;5041312;28;20025;-80
2023/01/11 08:28:28;;;;;;;1.67;1.02;;;8.60;99.90;;;;;;5039465;28;20029;-80
2023/01/11 08:30:53;;;;;;;1.60;1.50;;;8.40;99.90;;;;;;5044166;28;20412;-80
2023/01/11 08:33:19;;;;;;;0.52;0.52;;;8.30;99.90;;;;;;5043463;28;20033;-81
2023/01/11 08:35:45;;;;;;;0.32;0.32;;;8.30;99.90;;;;;;5043487;28;20029;-80
2023/01/11 08:38:10;;;;;;;0.47;0.47;;;8.30;99.90;;;;;;5041556;28;20025;-80
2023/01/11 08:40:36;;;;;;;0.30;0.30;;;8.40;99.90;;;;;;5043259;28;20376;-78
2023/01/11 08:43:02;;;;;;;0.30;0.30;;;8.40;99.90;;;;;;5043161;28;20037;-80
2023/01/11 08:45:28;;;;;;;1.40;1.13;;;8.50;99.90;;;;;;5043581;28;20029;-80
2023/01/11 08:47:54;;;;;;;0.30;0.30;;;8.60;99.90;;;;;;5044107;28;20048;-80
2023/01/11 08:50:20;;;;;;;0.40;0.40;;;8.60;99.90;;;;;;5041401;28;20029;-79
2023/01/11 08:52:46;;;;;;;0.80;0.50;;;8.50;99.90;;;;;;5042174;28;20033;-79
2023/01/11 08:55:12;;;;;;;0.22;0.22;;;8.50;99.90;;;;;;5043980;28;20039;-80
2023/01/11 08:57:38;;;;;;;0.40;0.40;;;8.70;99.90;;;;;;5043276;28;21297;-80
2023/01/11 09:00:05;;;;;;;0.30;0.30;;;8.70;99.90;;;;;;5043857;28;20021;-80
2023/01/11 09:02:31;;;;;;;0.22;0.22;;;8.50;99.90;;;;;;5043763;28;20056;-80
2023/01/11 09:04:57;;;;;;;6.13;0.43;;;8.50;99.90;;;;;;5043581;28;20539;-79
2023/01/11 09:07:23;;;;;;;0.95;0.95;;;8.40;99.90;;;;;;5037780;28;20029;-79
2023/01/11 09:09:49;;;;;;;0.70;0.70;;;8.40;99.90;;;;;;5044210;28;20528;-80
2023/01/11 09:12:15;;;;;;;0.10;0.10;;;8.40;99.90;;;;;;5043814;28;20017;-79
2023/01/11 09:14:41;;;;;;;0.30;0.30;;;8.40;99.90;;;;;;5043924;28;20081;-79
2023/01/11 09:17:07;;;;;;;0.10;0.10;;;8.50;99.90;;;;;;5043044;28;20028;-80
2023/01/11 09:19:33;;;;;;;0.98;0.60;;;8.60;99.90;;;;;;5043284;28;20647;-81
2023/01/11 09:22:01;;;;;;;0.10;0.10;;;8.70;99.90;;;;;;5043353;28;20468;-80
2023/01/11 09:24:28;;;;;;;0.60;0.60;;;8.70;99.90;;;;;;5043630;28;20017;-81
2023/01/11 09:26:56;;;;;;;0.30;0.30;;;8.50;99.90;;;;;;5034627;28;20259;-80
2023/01/11 09:29:22;;;;;;;3.20;0.50;;;8.60;99.90;;;;;;5042878;28;20029;-80
2023/01/11 09:31:48;;;;;;;0.85;0.70;;;8.70;99.90;;;;;;5042500;28;20035;-80
2023/01/11 09:34:14;;;;;;;0.55;0.55;;;8.70;99.90;;;;;;5041073;28;20037;-80
2023/01/11 09:36:40;;;;;;;0.40;0.40;;;8.70;99.90;;;;;;5050146;28;20029;-80
2023/01/11 09:39:13;;;;;;;0.10;0.10;;;8.60;99.90;;;;;;5042931;28;20078;-80
2023/01/11 09:42:00;;;;;;;1.00;0.90;;;8.60;99.90;;;;;;5043048;28;20082;-80
2023/01/11 09:44:29;;;;;;;0.10;0.10;;;8.60;99.90;;;;;;5046059;28;20688;-79
2023/01/11 09:47:35;;;;;;;0.88;0.52;;;8.70;99.90;;;;;;5042830;28;20020;-80
2023/01/11 09:50:06;;;;;;;3.10;1.63;;;8.70;99.90;;;;;;5033263;28;20804;-79
2023/01/11 09:52:39;;;;;;;0.13;0.13;;;8.80;99.90;;;;;;5041586;28;20025;-80
2023/01/11 09:55:10;;;;;;;33.47;1.05;;;8.70;99.90;;;;;;5043119;28;20029;-80
2023/01/11 09:57:47;;;;;;;0.70;0.45;;;8.60;99.90;;;;;;5041821;28;20056;-80
2023/01/11 10:00:45;;;;;;;0.20;0.20;;;8.60;99.90;;;;;;5042661;28;20029;-80
2023/01/11 10:03:48;;;;;;;0.32;0.20;;;8.70;99.90;;;;;;5042565;28;20025;-80
2023/01/11 10:06:38;;;;;;;0.73;0.73;;;8.70;99.90;;;;;;5031313;28;20082;-80
2023/01/11 10:09:21;;;;;;;0.38;0.38;;;8.60;99.90;;;;;;5042545;28;20157;-81
2023/01/11 10:12:08;;;;;;;0.30;0.30;;;8.60;99.90;;;;;;5041668;28;20028;-80
2023/01/11 10:14:59;;;;;;;1.35;0.30;;;8.60;99.90;;;;;;5032931;28;20128;-80
2023/01/11 10:17:53;;;;;;;0.40;0.40;;;8.60;99.90;;;;;;5041781;28;20487;-78
2023/01/11 10:20:34;;;;;;;0.43;0.43;;;8.50;99.90;;;;;;5039817;28;20551;-81
2023/01/11 10:23:35;;;;;;;0.10;0.10;;;8.50;99.90;;;;;;5042532;28;20029;-79
2023/01/11 10:26:08;;;;;;;0.10;0.10;;;8.70;99.90;;;;;;5038206;28;20029;-80
2023/01/11 10:28:48;;;;;;;0.40;0.40;;;8.70;99.90;;;;;;5039016;28;20021;-80
2023/01/11 10:34:21;;;;;;;1.35;0.82;;;8.80;99.90;;;;;;5038233;28;20381;-81
2023/01/11 10:37:17;;;;;;;0.35;0.35;;;8.80;99.90;;;;;;5041719;28;20052;-80
2023/01/11 10:40:37;;;;;;;0.20;0.20;;;8.70;99.90;;;;;;5037342;28;20029;-80
2023/01/11 10:43:19;;;;;;;1.52;1.42;;;8.80;99.90;;;;;;5014459;28;20037;-80
2023/01/11 10:46:00;;;;;;;2.25;1.55;;;9.00;99.90;;;;;;5019010;28;20033;-79
2023/01/11 10:48:38;;;;;;;0.55;0.55;;;9.10;99.90;;;;;;5033623;28;20037;-80
2023/01/11 10:51:06;;;;;;;1.90;1.45;;;9.10;99.90;;;;;;5039283;28;20582;-80
2023/01/11 10:53:43;;;;;;;1.02;0.73;;;9.20;99.90;;;;;;5041443;28;20501;-80
2023/01/11 10:56:34;;;;;;;0.22;0.22;;;9.20;99.90;;;;;;5040227;28;20393;-79
2023/01/11 10:59:33;;;;;;;0.47;0.47;;;9.20;99.90;;;;;;5039570;28;20033;-79
2023/01/11 11:02:02;;;;;;;0.85;0.85;;;9.30;99.90;;;;;;5037290;28;20036;-81
2023/01/11 11:04:52;;;;;;;0.10;0.10;;;9.20;99.90;;;;;;5041625;28;20037;-80
2023/01/11 11:07:49;;;;;;;0.65;0.25;;;9.30;99.90;;;;;;5041438;28;20104;-81
2023/01/11 11:10:37;;;;;;;0.30;0.30;;;9.20;99.90;;;;;;5040747;28;20054;-80
2023/01/11 11:13:03;;;;;;;0.43;0.43;;;9.20;99.90;;;;;;5045415;28;20056;-80
2023/01/11 11:16:01;;;;;;;0.60;0.55;;;9.10;99.90;;;;;;5045327;28;20144;-80
2023/01/11 11:18:27;;;;;;;0.25;0.25;;;9.10;99.90;;;;;;5041759;28;20567;-80
2023/01/11 11:20:55;;;;;;;0.47;0.47;;;9.10;99.90;;;;;;5045712;28;20039;-81
2023/01/11 11:23:24;;;;;;;15.70;0.50;;;9.20;99.90;;;;;;5043777;28;20025;-80
2023/01/11 11:26:00;;;;;;;0.17;0.17;;;9.20;99.90;;;;;;5046755;28;20021;-80
2023/01/11 11:28:29;;;;;;;0.40;0.40;;;9.20;99.90;;;;;;5041135;28;20040;-80
2023/01/11 11:31:06;;;;;;;1.75;1.00;;;9.20;99.90;;;;;;5045478;28;20036;-81
2023/01/11 11:33:32;;;;;;;;;;;9.30;99.90;;;;;;5045572;28;20028;-79
2023/01/11 11:36:03;;;;;;;0.50;0.50;;;9.20;99.90;;;;;;5045015;28;19909;-80
2023/01/11 11:38:32;;;;;;;1.63;0.95;;;9.30;99.90;;;;;;5045789;28;20040;-79
2023/01/11 11:41:10;;;;;;;0.35;0.35;;;9.30;99.90;;;;;;5044806;28;20043;-79
2023/01/11 11:43:38;;;;;;;4.65;1.17;;;9.20;99.90;;;;;;5043789;28;20025;-80
2023/01/11 11:46:18;;;;;;;0.28;0.22;;;9.20;99.90;;;;;;5038939;28;20605;-78
2023/01/11 11:49:04;;;;;;;0.43;0.43;;;9.20;99.90;;;;;;5036240;28;20028;-80
2023/01/11 11:51:30;;;;;;;0.30;0.30;;;9.20;99.90;;;;;;5039114;28;20033;-80
2023/01/11 11:53:56;;;;;;;4.20;0.73;;;9.30;99.90;;;;;;5042228;28;20563;-81
2023/01/11 11:56:36;;;;;;;1.03;0.93;;;9.20;99.90;;;;;;5058505;28;20280;-80
2023/01/11 11:59:08;;;;;;;0.40;0.40;;;9.00;99.90;;;;;;5043703;28;20263;-79
2023/01/11 12:01:39;;;;;;;0.20;0.20;;;9.20;99.90;;;;;;5042784;28;20025;-79
2023/01/11 12:04:18;;;;;;;0.43;0.30;;;9.20;99.90;;;;;;5044099;28;20043;-79
2023/01/11 12:06:49;;;;;;;0.40;0.40;;;9.20;99.90;;;;;;5050761;28;20102;-79
2023/01/11 12:09:29;;;;;;;0.35;0.35;;;9.40;99.90;;;;;;5042491;28;20806;-79
2023/01/11 12:11:56;;;;;;;0.20;0.20;;;9.30;99.90;;;;;;5038304;28;20499;-80
2023/01/11 12:14:30;;;;;;;1.55;1.20;;;9.30;99.90;;;;;;5044152;28;20029;-80
2023/01/11 12:16:59;;;;;;;0.52;0.52;;;9.20;99.90;;;;;;5043704;28;20055;-81
2023/01/11 12:19:46;;;;;;;0.50;0.50;;;9.10;99.90;;;;;;5039197;28;20028;-80
2023/01/11 12:22:23;;;;;;;0.30;0.30;;;9.20;99.90;;;;;;5042876;28;20032;-81
2023/01/11 12:25:13;;;;;;;0.20;0.20;;;9.20;99.90;;;;;;5043786;28;20056;-80
2023/01/11 12:27:53;;;;;;;2.63;0.80;;;9.20;99.90;;;;;;5044729;28;20049;-81
2023/01/11 12:30:41;;;;;;;0.50;0.50;;;9.30;99.90;;;;;;5043760;28;20032;-80
2023/01/11 12:33:07;;;;;;;1.67;0.63;;;9.40;99.90;;;;;;5037636;28;20021;-81
2023/01/11 12:35:35;;;;;;;0.70;0.70;;;9.30;99.90;;;;;;5043928;28;20099;-80
2023/01/11 12:38:35;;;;;;;2.03;0.68;;;9.40;99.90;;;;;;5043415;28;20112;-80
2023/01/11 12:41:42;;;;;;;1.38;0.40;;;9.50;99.90;;;;;;5037137;28;20882;-80
2023/01/11 12:44:17;;;;;;;0.85;0.85;;;9.50;99.90;;;;;;5041349;28;20028;-80
2023/01/11 12:47:02;;;;;;;0.50;0.50;;;9.50;99.90;;;;;;5043800;28;20025;-80
2023/01/11 12:49:28;;;;;;;0.30;0.30;;;9.50;99.90;;;;;;5044225;28;20135;-81
2023/01/11 12:52:10;;;;;;;0.55;0.55;;;9.50;99.90;;;;;;5041502;28;20100;-79
2023/01/11 12:55:00;;;;;;;0.57;0.57;;;9.70;99.90;;;;;;5044165;28;20738;-80
2023/01/11 12:57:43;;;;;;;0.30;0.30;;;9.60;99.90;;;;;;5041294;28;20033;-80
2023/01/11 13:00:30;;;;;;;0.50;0.47;;;9.90;99.90;;;;;;5043390;28;20017;-80
2023/01/11 13:03:28;;;;;;;0.17;0.17;;;10.10;99.90;;;;;;5037824;28;20148;-81
2023/01/11 13:06:31;;;;;;;0.65;0.65;;;10.30;99.90;;;;;;5041555;28;20025;-80
2023/01/11 13:09:41;;;;;;;0.52;0.47;;;10.30;99.90;;;;;;5041025;28;20056;-80
2023/01/11 13:12:20;;;;;;;4.40;0.50;;;10.50;99.90;;;;;;5040422;28;20649;-80
2023/01/11 13:15:09;;;;;;;0.40;0.40;;;10.70;99.90;;;;;;5043107;28;20128;-80
2023/01/11 13:17:40;;;;;;;0.10;0.10;;;10.60;99.90;;;;;;5024627;28;20045;-80
2023/01/11 13:20:32;;;;;;;1.95;1.38;;;10.50;99.90;;;;;;5038497;28;20025;-80
2023/01/11 13:23:28;;;;;;;4.20;3.58;;;10.50;99.90;;;;;;5043164;28;20515;-80
2023/01/11 13:25:55;;;;;;;9.60;1.65;;;10.40;99.90;;;;;;5031916;28;20037;-80
2023/01/11 13:28:37;;;;;;;0.95;0.93;;;10.20;99.90;;;;;;5027161;28;20021;-80
2023/01/11 13:31:05;;;;;;;1.73;1.20;;;10.10;99.90;;;;;;5039828;28;20057;-80
2023/01/11 13:33:33;;;;;;;1.00;0.77;;;10.20;99.90;;;;;;5039227;28;20021;-80
2023/01/11 13:36:12;;;;;;;8.77;1.55;;;10.40;99.90;;;;;;5042871;28;20089;-80
2023/01/11 13:38:50;;;;;;;0.32;0.32;;;10.30;99.90;;;;;;5043591;28;20036;-80
2023/01/11 13:41:29;;;;;;;0.20;0.20;;;10.20;99.90;;;;;;5042687;28;20025;-80
2023/01/11 13:44:12;;;;;;;0.40;0.40;;;10.20;99.90;;;;;;5037152;28;20104;-81
2023/01/11 13:47:01;;;;;;;10.88;2.38;;;10.30;99.90;;;;;;5041440;28;20120;-80
2023/01/11 13:50:09;;;;;;;0.10;0.10;;;10.30;99.90;;;;;;5041025;28;20036;-80